Colerain, OH (43916)

4:38 PM EST on February 12, 2016 (GMT -0500)
Crawford Heights | | Change Station
CLOSE
Current Station
Personal Weather Station
Location: Martins Ferry, OH
Elevation: 1109 ft
Nearby Weather Stations
Active Advisory: Wind Chill Advisory

Elev 1109 ft 40.09 °N, 80.75 °W | Updated 7 minutes ago

Overcast
Overcast
21.2 °F
Feels Like 11 °F
N
8.3
Wind Variable Wind from SW

Today
High -- | Low -- °F
--% Chance of Precip.
Yesterday
High -- | Low -- °F
Precip. -- in
Pressure 30.04 in
Visibility 6.0 miles
Clouds Mostly Cloudy 4000 ft
Overcast 4800 ft
Windchill 11 °F
Dew Point 12 °F
Humidity 68%
Rainfall 0.00 in
Snow Depth Not available.
7:20 AM 5:54 PM
Waxing Crescent, 24% visible
METAR KHLG 122053Z 27010KT 6SM HZ BKN040 OVC048 M06/M13 A2996 RMK AO2 SNB42E53 SLP171 P0000 60000 T10611133 56027
Pressure 30.04 in
Visibility 6.0 miles
Clouds Mostly Cloudy 4000 ft
Overcast 4800 ft
Windchill 11 °F
Dew Point 12 °F
Humidity 68%
Rainfall 0.00 in
Snow Depth Not available.
7:20 AM 5:54 PM
Waxing Crescent, 24% visible
METAR KHLG 122053Z 27010KT 6SM HZ BKN040 OVC048 M06/M13 A2996 RMK AO2 SNB42E53 SLP171 P0000 60000 T10611133 56027

10-Day Weather Forecast

Almanac

Astronomy

Feb. 12, 2016 Rise Set
Actual Time
Civil Twilight
Nautical Twilight
Astronomical Twilight
Moon
Length of Visible Light
Length of Day
Tomorrow will be .
, % of the Moon is Illuminated

Today's Extremes

State Highs State Lows

Community

WunderPhotos

Upload Photos

1,892,405 photos uploaded!

WunderBlog® & News

Nearby

Air Quality

  Air Quality AQ Index Pollutant
Not available.

Snow Depth

Station Depth Elevation

Earthquake Activity

City Distance Mag. Time & Date
Minimum magnitude displayed is 2.5.

Coastal Water Temperatures

Place Temperature

Stations

Nearby Weather Stations

Station Location Temp. Windchill Dew Point Humidity Wind Precip. Elev Updated Type
                   

Watches & Warnings

Wind Chill Advisory
Issued: 3:28 PM EST Feb. 12, 2016 – National Weather Service

... Wind Chill Advisory remains in effect from midnight tonight to
11 am EST Saturday...

* wind chill... as low as 15 below due to temperatures 3 to 14
above... and winds northwest 10 to 15 mph with gusts up to 25
mph.

* Impacts... frost bite and hypothermia are possible if
precautions are not taken.

Precautionary/preparedness actions...

A Wind Chill Advisory means that very cold air and strong winds
will combine to generate low wind chills. This will result in
frost bite and lead to hypothermia if precautions are not taken.
If you must venture outdoors... make sure you wear a hat and
gloves.